Atlantic, Iowa
Current Conditions -  °F | °C
As of 4:15 PM on Monday 24 Nov 2014 (Local Time) from KAIO Reporting Station
Broken Clouds Broken Clouds  
Wind Chill: 18°   Ceiling: 3800
Heat Index: 30°   Visibility: 10mi
Dew Point: 19°   Wind: 20mph
Humidity: 64%   Direction: 310°NW
Pressure: 29.82"   Gusts: 29mph
Location:  41.4°N, 95.01°W
Report Text: KAIO 242215Z AUTO 31017G25KT 10SM SCT031 BKN038 M01/M07 A2982 RMK AO2
Loading
Personal Weather Stations






























Interactive Weather Map New forecast layout! Learn more

10-Day Weather Forecast

Advertisements
Track Severe Weather on mobile